Time;durP1;ratioP1;P1;durP2;ratioP2;P2;SDS_P1;SDS_P2;PMS_P1;PMS_P2;Temp;Humidity;BMP_temperature;BMP_pressure;BME280_temperature;BME280_humidity;BME280_pressure;Samples;Min_cycle;Max_cycle;Signal;HPM_P1;HPM_P2
2022/12/07 00:01:44;;;;;;;47.25;25.10;;;;;;;5.42;100.00;62555.78;4948813;29;20225;-78
2022/12/07 00:04:13;;;;;;;47.63;25.80;;;;;;;5.43;100.00;62559.34;4948434;29;20210;-78
2022/12/07 00:06:42;;;;;;;47.28;25.55;;;;;;;5.48;100.00;62559.97;4952327;29;20288;-80
2022/12/07 00:09:13;;;;;;;43.47;24.20;;;;;;;5.49;100.00;62563.50;4951412;29;20209;-78
2022/12/07 00:11:41;;;;;;;41.10;24.15;;;;;;;5.48;100.00;62562.47;4949013;29;20259;-78
2022/12/07 00:14:12;;;;;;;43.58;22.88;;;;;;;5.41;100.00;62555.28;4950512;28;20295;-78
2022/12/07 00:16:38;;;;;;;45.72;25.67;;;;;;;5.44;100.00;62558.34;4950190;29;20304;-76
2022/12/07 00:19:05;;;;;;;43.95;24.23;;;;;;;5.19;100.00;62532.63;4949630;29;20205;-79
2022/12/07 00:21:35;;;;;;;43.10;22.48;;;;;;;5.21;100.00;62541.72;4949607;29;20604;-77
2022/12/07 00:24:02;;;;;;;42.30;22.67;;;;;;;5.14;100.00;62529.47;4950116;29;20204;-78
2022/12/07 00:26:31;;;;;;;33.60;21.55;;;;;;;5.18;100.00;62531.56;4948628;29;20268;-78
2022/12/07 00:29:02;;;;;;;38.00;20.17;;;;;;;5.24;100.00;62534.72;4949799;29;20201;-76
2022/12/07 00:31:30;;;;;;;37.42;20.50;;;;;;;5.27;100.00;62540.84;4950279;28;20221;-77
2022/12/07 00:33:58;;;;;;;34.28;20.33;;;;;;;5.31;100.00;62544.97;4937288;29;20230;-78
2022/12/07 00:36:27;;;;;;;40.85;22.55;;;;;;;5.37;100.00;62553.66;4944085;29;20221;-78
2022/12/07 00:38:54;;;;;;;37.83;21.50;;;;;;;5.42;100.00;62555.78;4948922;29;20201;-77
2022/12/07 00:41:23;;;;;;;37.88;22.10;;;;;;;5.46;100.00;62557.38;4949422;29;20221;-77
2022/12/07 00:43:50;;;;;;;38.80;21.65;;;;;;;5.28;100.00;62541.38;4946430;29;20420;-79
2022/12/07 00:46:19;;;;;;;43.00;23.27;;;;;;;5.27;100.00;62545.38;4948202;29;20556;-78
2022/12/07 00:48:47;;;;;;;42.85;21.55;;;;;;;5.35;100.00;62554.13;4947370;28;20205;-77
2022/12/07 00:51:17;;;;;;;41.92;22.55;;;;;;;5.45;100.00;62559.38;4952745;29;20287;-78
2022/12/07 00:53:44;;;;;;;43.67;22.58;;;;;;;5.44;100.00;62558.34;4936673;29;20213;-76
2022/12/07 00:56:14;;;;;;;40.22;21.42;;;;;;;5.42;100.00;62556.28;4948319;28;20225;-78
2022/12/07 00:58:41;;;;;;;41.03;22.40;;;;;;;5.43;100.00;62559.34;4949018;29;20236;-78
2022/12/07 01:01:09;;;;;;;41.72;24.00;;;;;;;5.45;100.00;62556.34;4947968;29;20264;-78
2022/12/07 01:03:39;;;;;;;39.38;23.80;;;;;;;5.45;100.00;62556.84;4947830;28;20201;-78
2022/12/07 01:06:07;;;;;;;42.47;24.30;;;;;;;5.43;100.00;62552.28;4949653;29;20217;-77
2022/12/07 01:08:34;;;;;;;45.22;24.20;;;;;;;5.39;100.00;62558.25;4949535;29;20205;-77
2022/12/07 01:11:03;;;;;;;41.42;24.48;;;;;;;5.35;100.00;62546.56;4947210;29;20318;-79
2022/12/07 01:13:30;;;;;;;47.67;26.02;;;;;;;5.37;100.00;62553.66;4948308;29;20221;-77
2022/12/07 01:16:00;;;;;;;45.95;25.20;;;;;;;5.07;100.00;62520.25;4947629;28;20261;-78
2022/12/07 01:18:27;;;;;;;46.53;26.33;;;;;;;5.11;100.00;62526.88;4951766;29;20287;-78
2022/12/07 01:21:03;;;;;;;49.17;25.48;;;;;;;5.05;100.00;62517.69;4947924;29;20530;-77
2022/12/07 01:23:31;;;;;;;48.28;25.73;;;;;;;5.05;100.00;62517.69;4948845;29;20201;-77
2022/12/07 01:25:59;;;;;;;50.05;26.10;;;;;;;5.10;100.00;62520.81;4950535;29;20217;-78
2022/12/07 01:28:26;;;;;;;44.83;24.23;;;;;;;5.12;100.00;62527.94;4949017;29;20232;-78
2022/12/07 01:31:01;;;;;;;38.78;23.70;;;;;;;5.10;100.00;62528.38;4947266;28;20225;-78
2022/12/07 01:33:30;;;;;;;36.80;21.70;;;;;;;5.13;100.00;62525.91;4948034;28;20197;-78
2022/12/07 01:36:03;;;;;;;42.10;23.23;;;;;;;5.17;100.00;62535.59;4947789;29;20448;-77
2022/12/07 01:38:31;;;;;;;43.28;23.40;;;;;;;5.18;100.00;62529.06;4949849;28;20545;-78
2022/12/07 01:40:58;;;;;;;45.40;25.35;;;;;;;5.15;100.00;62520.91;4950009;29;20217;-79
2022/12/07 01:43:28;;;;;;;46.33;24.67;;;;;;;5.16;100.00;62529.00;4951759;28;20201;-76
2022/12/07 01:45:56;;;;;;;45.75;25.33;;;;;;;4.98;100.00;62510.47;4949627;29;20431;-78
2022/12/07 01:48:27;;;;;;;55.20;28.25;;;;;;;4.97;100.00;62512.47;4949690;28;20273;-79
2022/12/07 01:50:58;;;;;;;49.78;26.08;;;;;;;4.93;100.00;62505.31;4949999;29;20225;-79
2022/12/07 01:53:30;;;;;;;49.50;27.00;;;;;;;4.79;100.00;62488.91;4950082;29;20233;-78
2022/12/07 01:55:58;;;;;;;57.03;26.60;;;;;;;4.66;100.00;62478.03;4949806;29;20225;-79
2022/12/07 01:58:26;;;;;;;46.38;28.17;;;;;;;4.72;100.00;62482.22;4931438;29;20236;-77
2022/12/07 02:00:53;;;;;;;45.47;26.67;;;;;;;4.68;100.00;62480.63;4928978;29;20222;-78
2022/12/07 02:03:25;;;;;;;55.47;27.35;;;;;;;4.84;100.00;62499.09;4953776;29;20266;-77
2022/12/07 02:05:54;;;;;;;50.13;26.95;;;;;;;4.92;100.00;62504.28;4959062;28;20225;-79
2022/12/07 02:08:22;;;;;;;52.90;26.83;;;;;;;4.91;100.00;62500.72;4948808;29;20201;-78
2022/12/07 02:10:50;;;;;;;46.75;25.90;;;;;;;4.69;100.00;62483.66;4948469;29;20498;-77
2022/12/07 02:13:22;;;;;;;49.45;27.10;;;;;;;4.78;100.00;62490.38;4947199;29;20210;-77
2022/12/07 02:16:09;;;;;;;43.22;25.65;;;;;;;4.71;100.00;62480.66;4946515;28;20229;-77
2022/12/07 02:19:01;;;;;;;49.83;26.42;;;;;;;4.76;100.00;62488.34;4947244;29;20267;-76
2022/12/07 02:21:40;;;;;;;50.58;25.63;;;;;;;4.84;100.00;62501.63;4947267;29;20226;-78
2022/12/07 02:24:19;;;;;;;48.38;26.70;;;;;;;4.84;100.00;62496.06;4946317;29;20515;-78
2022/12/07 02:27:14;;;;;;;57.03;27.75;;;;;;;4.93;100.00;62505.31;4946946;29;20221;-77
2022/12/07 02:29:47;;;;;;;59.03;28.88;;;;;;;4.95;100.00;62507.38;4944147;29;20205;-77
2022/12/07 02:32:20;;;;;;;48.83;28.23;;;;;;;5.03;100.00;62515.63;4946198;28;20258;-78
2022/12/07 02:34:51;;;;;;;55.60;29.33;;;;;;;4.99;100.00;62508.97;4946641;29;20432;-78
2022/12/07 02:37:36;;;;;;;44.22;27.60;;;;;;;5.00;100.00;62510.53;4946954;29;20618;-78
2022/12/07 02:40:09;;;;;;;53.42;27.85;;;;;;;4.94;100.00;62503.81;4946313;29;20494;-78
2022/12/07 02:42:41;;;;;;;49.67;27.10;;;;;;;5.00;100.00;62518.09;4947184;29;20508;-77
2022/12/07 02:45:13;;;;;;;47.40;23.88;;;;;;;4.91;100.00;62501.25;4946949;29;20205;-77
2022/12/07 02:47:42;;;;;;;48.33;26.70;;;;;;;4.93;100.00;62507.84;4944190;29;20205;-78
2022/12/07 02:50:10;;;;;;;46.90;25.45;;;;;;;4.93;100.00;62507.84;4944818;29;20245;-77
2022/12/07 02:52:37;;;;;;;45.30;23.60;;;;;;;4.97;100.00;62515.00;4945583;29;20206;-77
2022/12/07 02:55:05;;;;;;;41.72;24.67;;;;;;;4.94;100.00;62509.38;4946474;28;20449;-78
2022/12/07 02:57:45;;;;;;;42.55;25.95;;;;;;;4.95;100.00;62507.91;4946477;29;20233;-77
2022/12/07 03:00:16;;;;;;;52.65;25.33;;;;;;;4.98;100.00;62507.94;4948095;29;20221;-78
2022/12/07 03:02:53;;;;;;;44.38;25.40;;;;;;;4.87;100.00;62499.16;4948584;29;20207;-78
2022/12/07 03:05:33;;;;;;;43.80;24.20;;;;;;;4.84;100.00;62496.06;4949674;29;20217;-79
2022/12/07 03:08:05;;;;;;;49.22;25.90;;;;;;;4.86;100.00;62498.63;4949939;29;20252;-77
2022/12/07 03:10:40;;;;;;;47.17;23.60;;;;;;;4.87;100.00;62502.19;4950457;29;20253;-78
2022/12/07 03:13:13;;;;;;;41.42;22.25;;;;;;;4.85;100.00;62494.56;4950150;29;20268;-78
2022/12/07 03:15:48;;;;;;;46.65;23.42;;;;;;;4.85;100.00;62502.13;4948999;29;20248;-77
2022/12/07 03:18:18;;;;;;;38.28;22.58;;;;;;;4.86;100.00;62495.59;4949091;29;20247;-78
2022/12/07 03:20:48;;;;;;;36.67;21.27;;;;;;;4.80;100.00;62489.91;4949894;28;20268;-79
2022/12/07 03:23:18;;;;;;;33.03;20.25;;;;;;;4.78;100.00;62485.34;4950269;29;20202;-78
2022/12/07 03:25:49;;;;;;;34.10;18.80;;;;;;;4.73;100.00;62490.28;4942750;29;20292;-79
2022/12/07 03:28:19;;;;;;;30.17;17.83;;;;;;;4.70;100.00;62484.69;4950710;29;20212;-80
2022/12/07 03:30:53;;;;;;;31.65;18.55;;;;;;;4.71;100.00;62485.72;4948892;29;20269;-79
2022/12/07 03:33:25;;;;;;;32.40;18.00;;;;;;;4.74;100.00;62486.28;4949642;28;20201;-78
2022/12/07 03:36:01;;;;;;;31.52;17.40;;;;;;;4.71;100.00;62485.72;4949107;29;20285;-79
2022/12/07 03:38:34;;;;;;;20.33;12.90;;;;;;;4.76;100.00;62490.88;4950538;29;20235;-78
2022/12/07 03:41:03;;;;;;;24.85;14.10;;;;;;;4.78;100.00;62487.34;4949127;29;20312;-80
2022/12/07 03:43:30;;;;;;;22.08;13.27;;;;;;;4.70;100.00;62482.16;4949953;29;20253;-78
2022/12/07 03:46:07;;;;;;;34.83;16.15;;;;;;;4.74;100.00;62481.22;4948225;29;20256;-79
2022/12/07 03:48:41;;;;;;;33.33;19.70;;;;;;;4.72;100.00;62484.22;4948711;29;20201;-77
2022/12/07 03:51:21;;;;;;;28.80;17.55;;;;;;;4.76;100.00;62487.81;4949404;29;20225;-78
2022/12/07 03:53:53;;;;;;;31.30;17.38;;;;;;;4.68;100.00;62483.13;4950263;29;20280;-79
2022/12/07 03:56:22;;;;;;;31.02;17.85;;;;;;;4.69;100.00;62483.66;4949573;29;20272;-78
2022/12/07 03:58:50;;;;;;;32.83;17.02;;;;;;;4.77;100.00;62486.31;4948112;29;20229;-78
2022/12/07 04:01:20;;;;;;;24.48;17.75;;;;;;;4.81;100.00;62490.97;4947089;29;20257;-79
2022/12/07 04:03:47;;;;;;;25.15;17.02;;;;;;;4.76;100.00;62488.34;4950043;28;20209;-78
2022/12/07 04:06:14;;;;;;;29.70;15.65;;;;;;;4.74;100.00;62488.81;4949473;29;20564;-79
2022/12/07 04:08:41;;;;;;;22.15;13.05;;;;;;;4.65;100.00;62477.53;4947668;29;20217;-77
2022/12/07 04:11:08;;;;;;;21.02;12.35;;;;;;;4.69;100.00;62484.16;4946456;28;20243;-76
2022/12/07 04:14:18;;;;;;;18.85;12.20;;;;;;;4.67;100.00;62482.13;4948915;29;20201;-78
2022/12/07 04:16:23;;;;;;;23.30;13.88;;;;;;;4.69;100.00;62481.63;4949567;29;20222;-77
2022/12/07 04:18:50;;;;;;;27.17;15.82;;;;;;;4.68;100.00;62483.13;4949301;29;20237;-77
2022/12/07 04:21:17;;;;;;;21.48;13.20;;;;;;;4.73;100.00;62480.72;4947936;29;20236;-79
2022/12/07 04:23:44;;;;;;;28.00;16.42;;;;;;;4.73;100.00;62490.81;4949456;29;20208;-77
2022/12/07 04:26:11;;;;;;;24.98;13.95;;;;;;;4.73;100.00;62485.25;4948838;29;20280;-78
2022/12/07 04:28:37;;;;;;;20.08;12.90;;;;;;;4.78;100.00;62492.41;4949330;29;20214;-79
2022/12/07 04:31:04;;;;;;;16.80;11.60;;;;;;;4.74;100.00;62484.25;4948734;29;20225;-77
2022/12/07 04:33:32;;;;;;;23.58;13.32;;;;;;;4.73;100.00;62482.72;4947514;28;20354;-77
2022/12/07 04:35:59;;;;;;;20.95;12.18;;;;;;;4.73;100.00;62487.75;4947189;29;20217;-75
2022/12/07 04:38:26;;;;;;;20.95;12.10;;;;;;;4.70;100.00;62482.16;4947480;29;20243;-80
2022/12/07 04:40:53;;;;;;;18.98;11.55;;;;;;;4.71;100.00;62481.16;4948249;29;20221;-78
2022/12/07 04:43:20;;;;;;;17.20;11.25;;;;;;;4.66;100.00;62478.03;4947863;28;20202;-78
2022/12/07 04:45:48;;;;;;;20.45;11.50;;;;;;;4.61;100.00;62473.41;4950184;28;20225;-79
2022/12/07 04:48:15;;;;;;;25.85;13.10;;;;;;;4.63;100.00;62474.94;4949250;29;20201;-79
2022/12/07 04:50:43;;;;;;;22.80;13.93;;;;;;;4.62;100.00;62473.94;4949224;29;20541;-78
2022/12/07 04:53:10;;;;;;;24.17;12.77;;;;;;;4.62;100.00;62476.44;4947763;29;20221;-79
2022/12/07 04:55:37;;;;;;;27.58;15.43;;;;;;;4.62;100.00;62471.41;4947166;29;20272;-77
2022/12/07 04:58:04;;;;;;;26.00;14.85;;;;;;;4.59;100.00;62473.38;4949224;29;20586;-77
2022/12/07 05:00:31;;;;;;;25.38;16.13;;;;;;;4.56;100.00;62467.75;4949461;29;20292;-78
2022/12/07 05:02:58;;;;;;;27.88;16.65;;;;;;;4.49;100.00;62458.53;4951000;29;20209;-77
2022/12/07 05:05:25;;;;;;;28.15;16.27;;;;;;;4.54;100.00;62468.19;4948253;29;20218;-77
2022/12/07 05:07:53;;;;;;;36.95;17.33;;;;;;;4.48;100.00;62459.50;4947576;29;20490;-77
2022/12/07 05:10:20;;;;;;;29.90;16.05;;;;;;;4.52;100.00;62464.13;4960472;29;20233;-79
2022/12/07 05:12:47;;;;;;;24.73;15.77;;;;;;;4.50;100.00;62459.06;4969502;28;20208;-78
2022/12/07 05:15:15;;;;;;;29.67;15.52;;;;;;;4.45;100.00;62456.44;4959365;28;20201;-79
2022/12/07 05:17:42;;;;;;;28.20;15.43;;;;;;;4.50;100.00;62461.56;4948021;29;20211;-80
2022/12/07 05:20:13;;;;;;;27.70;14.32;;;;;;;4.50;100.00;62462.06;4948607;28;20205;-79
2022/12/07 05:22:39;;;;;;;22.95;13.82;;;;;;;4.36;100.00;62449.69;4949686;29;20529;-78
2022/12/07 05:25:09;;;;;;;40.60;19.52;;;;;;;4.32;100.00;62443.03;4948593;29;20239;-78
2022/12/07 05:27:35;;;;;;;33.42;19.38;;;;;;;4.32;100.00;62446.09;4946707;29;20213;-78
2022/12/07 05:30:02;;;;;;;40.90;21.08;;;;;;;4.28;100.00;62441.47;4947395;29;20207;-78
2022/12/07 05:32:29;;;;;;;41.58;23.20;;;;;;;4.36;100.00;62444.66;4947847;28;20413;-77
2022/12/07 05:34:56;;;;;;;43.08;22.75;;;;;;;4.45;100.00;62458.94;4947214;29;20201;-76
2022/12/07 05:37:23;;;;;;;45.70;23.52;;;;;;;4.50;100.00;62464.09;4946415;29;20201;-78
2022/12/07 05:39:50;;;;;;;37.42;20.10;;;;;;;4.48;100.00;62457.00;4948949;29;20430;-78
2022/12/07 05:42:18;;;;;;;39.60;21.85;;;;;;;4.44;100.00;62455.91;4947140;29;20225;-81
2022/12/07 05:44:47;;;;;;;33.53;18.73;;;;;;;4.49;100.00;62465.56;4947938;29;20197;-78
2022/12/07 05:47:15;;;;;;;45.78;24.77;;;;;;;4.54;100.00;62466.19;4946888;29;20240;-77
2022/12/07 05:49:42;;;;;;;40.42;20.42;;;;;;;4.34;100.00;62440.06;4947169;28;20489;-76
2022/12/07 05:52:09;;;;;;;33.35;19.40;;;;;;;4.17;100.00;62430.13;4947529;28;20220;-77
2022/12/07 05:54:36;;;;;;;30.63;17.48;;;;;;;4.13;100.00;62421.50;4944766;29;20221;-77
2022/12/07 05:57:03;;;;;;;30.67;18.13;;;;;;;4.19;100.00;62430.19;4946803;29;20239;-78
2022/12/07 05:59:31;;;;;;;30.40;16.67;;;;;;;4.26;100.00;62439.41;4946413;28;20281;-78
2022/12/07 06:02:00;;;;;;;34.08;17.58;;;;;;;4.37;100.00;62451.22;4946082;29;20212;-77
2022/12/07 06:04:28;;;;;;;24.95;15.23;;;;;;;4.34;100.00;62442.59;4946476;29;20201;-77
2022/12/07 06:06:56;;;;;;;31.85;15.80;;;;;;;4.42;100.00;62453.84;4946274;29;20227;-76
2022/12/07 06:09:25;;;;;;;34.25;18.40;;;;;;;4.30;100.00;62446.53;4947199;29;20216;-77
2022/12/07 06:14:39;;;;;;;35.78;19.17;;;;;;;4.32;100.00;62446.09;4942164;29;20226;-77
2022/12/07 06:17:07;;;;;;;33.38;17.70;;;;;;;4.42;100.00;62456.38;4927239;29;20246;-79
2022/12/07 06:19:35;;;;;;;31.60;17.67;;;;;;;4.47;100.00;62456.47;4928117;29;20235;-76
2022/12/07 06:22:02;;;;;;;36.53;19.83;;;;;;;4.57;100.00;62471.31;4941551;29;20225;-77
2022/12/07 06:24:29;;;;;;;34.13;17.45;;;;;;;4.60;100.00;62469.88;4947485;29;20201;-76
2022/12/07 06:26:56;;;;;;;33.60;18.15;;;;;;;4.66;100.00;62480.56;4946269;29;20269;-76
2022/12/07 06:29:23;;;;;;;40.80;19.88;;;;;;;4.78;100.00;62487.84;4946089;28;20486;-73
2022/12/07 06:31:51;;;;;;;40.97;20.10;;;;;;;4.80;100.00;62492.44;4947050;29;20229;-76
2022/12/07 06:34:22;;;;;;;42.13;21.85;;;;;;;4.82;100.00;62488.94;4950381;29;20202;-77
2022/12/07 06:36:51;;;;;;;40.67;20.85;;;;;;;4.79;100.00;62491.44;4950590;28;20280;-76
2022/12/07 06:39:19;;;;;;;43.45;22.63;;;;;;;4.92;100.00;62499.25;4948553;29;20292;-77
2022/12/07 06:41:47;;;;;;;47.45;23.80;;;;;;;4.98;100.00;62510.47;4949266;28;20221;-77
2022/12/07 06:44:14;;;;;;;59.00;27.85;;;;;;;5.19;100.00;62532.63;4949220;29;20241;-77
2022/12/07 06:46:41;;;;;;;51.40;23.77;;;;;;;5.21;100.00;62534.66;4949532;29;20546;-76
2022/12/07 06:49:09;;;;;;;59.83;26.90;;;;;;;5.29;100.00;62542.91;4945898;29;20224;-75
2022/12/07 06:51:40;;;;;;;58.50;26.27;;;;;;;5.39;100.00;62552.69;4950321;29;20225;-76
2022/12/07 06:54:07;;;;;;;54.47;27.15;;;;;;;5.12;100.00;62522.88;4947934;29;20213;-76
2022/12/07 06:56:34;;;;;;;56.40;27.67;;;;;;;4.88;100.00;62502.69;4948323;29;20317;-75
2022/12/07 06:59:01;;;;;;;54.28;27.75;;;;;;;4.92;100.00;62501.78;4949551;29;20235;-75
2022/12/07 07:01:28;;;;;;;55.97;26.73;;;;;;;4.70;100.00;62484.69;4948054;29;20221;-75
2022/12/07 07:03:55;;;;;;;59.55;26.63;;;;;;;4.99;100.00;62514.53;4946480;29;20237;-76
2022/12/07 07:06:23;;;;;;;53.53;28.02;;;;;;;5.18;100.00;62528.53;4947657;29;20225;-76
2022/12/07 07:08:50;;;;;;;56.08;26.95;;;;;;;5.01;100.00;62519.13;4948239;29;20197;-75
2022/12/07 07:11:17;;;;;;;53.25;28.60;;;;;;;5.21;100.00;62531.63;4947211;29;20276;-77
2022/12/07 07:13:45;;;;;;;60.85;29.35;;;;;;;5.30;100.00;62541.41;4945557;29;20205;-77
2022/12/07 07:16:13;;;;;;;53.03;26.35;;;;;;;5.45;100.00;62561.41;4947857;28;20225;-77
2022/12/07 07:18:40;;;;;;;60.35;28.77;;;;;;;5.23;100.00;62538.75;4947411;29;20284;-77
2022/12/07 07:21:07;;;;;;;63.40;26.75;;;;;;;5.08;100.00;62518.25;4948879;29;20221;-76
2022/12/07 07:23:35;;;;;;;60.42;29.25;;;;;;;4.86;100.00;62503.69;4949704;29;20202;-75
2022/12/07 07:26:03;;;;;;;55.47;27.17;;;;;;;4.77;100.00;62486.31;4951272;29;20249;-76
2022/12/07 07:28:31;;;;;;;62.75;29.60;;;;;;;4.58;100.00;62467.28;4950621;29;20202;-78
2022/12/07 07:31:01;;;;;;;58.30;28.15;;;;;;;4.84;100.00;62501.09;4951760;28;20224;-81
2022/12/07 07:33:28;;;;;;;51.83;27.70;;;;;;;5.04;100.00;62519.69;4950867;29;20201;-80
2022/12/07 07:35:55;;;;;;;59.13;27.67;;;;;;;5.21;100.00;62534.16;4960614;28;20229;-77
2022/12/07 07:38:22;;;;;;;61.03;26.83;;;;;;;5.36;100.00;62552.66;4968959;28;20434;-76
2022/12/07 07:40:50;;;;;;;51.85;28.25;;;;;;;5.48;100.00;62565.00;4969993;28;20235;-77
2022/12/07 07:43:17;;;;;;;58.10;27.58;;;;;;;5.59;100.00;62573.31;4952959;28;20210;-79
2022/12/07 07:45:45;;;;;;;56.35;27.10;;;;;;;5.72;100.00;62589.75;4946076;29;20451;-78
2022/12/07 07:48:12;;;;;;;63.75;26.75;;;;;;;5.79;100.00;62596.44;4950910;28;20201;-79
2022/12/07 07:50:38;;;;;;;50.47;26.52;;;;;;;5.85;100.00;62600.09;4947461;29;20522;-78
2022/12/07 07:53:05;;;;;;;49.53;24.92;;;;;;;5.99;100.00;62614.03;4938139;29;20205;-78
2022/12/07 07:55:32;;;;;;;50.83;25.42;;;;;;;6.16;100.00;62629.53;4948170;29;20229;-78
2022/12/07 07:58:00;;;;;;;53.10;26.45;;;;;;;6.24;100.00;62642.31;4949557;29;20355;-77
2022/12/07 08:00:27;;;;;;;55.50;26.20;;;;;;;5.73;100.00;62593.28;4949627;29;20277;-78
2022/12/07 08:02:54;;;;;;;51.42;24.77;;;;;;;5.31;100.00;62541.94;4950096;29;20435;-77
2022/12/07 08:05:21;;;;;;;43.25;24.48;;;;;;;5.51;100.00;62565.06;4950847;29;20229;-78
2022/12/07 08:07:48;;;;;;;52.63;24.88;;;;;;;5.62;100.00;62578.91;4953681;29;20201;-77
2022/12/07 08:10:15;;;;;;;54.22;25.58;;;;;;;5.56;100.00;62567.69;4937232;29;20197;-79
2022/12/07 08:15:31;;;;;;;51.38;27.30;;;;;;;5.89;100.00;62609.28;4948094;29;20224;-77
2022/12/07 08:17:58;;;;;;;52.17;25.75;;;;;;;5.57;100.00;62574.28;4949894;29;20210;-77
2022/12/07 08:20:25;;;;;;;48.20;23.80;;;;;;;5.30;100.00;62546.47;4949504;29;20245;-79
2022/12/07 08:22:52;;;;;;;47.67;24.95;;;;;;;5.52;100.00;62566.59;4949588;28;20550;-77
2022/12/07 08:25:19;;;;;;;54.30;26.75;;;;;;;5.58;100.00;62572.25;4944966;29;20225;-77
2022/12/07 08:27:46;;;;;;;55.35;26.58;;;;;;;5.73;100.00;62588.22;4948545;28;20205;-78
2022/12/07 08:30:16;;;;;;;51.95;25.88;;;;;;;5.79;100.00;62602.00;4950340;29;20201;-79
2022/12/07 08:32:45;;;;;;;53.60;27.77;;;;;;;6.05;100.00;62617.69;4949242;28;20201;-79
2022/12/07 08:35:13;;;;;;;47.75;25.73;;;;;;;6.00;100.00;62613.03;4949502;28;20201;-77
2022/12/07 08:37:40;;;;;;;54.28;25.38;;;;;;;5.94;100.00;62611.91;4949585;29;20521;-77
2022/12/07 08:40:15;;;;;;;52.17;25.58;;;;;;;6.02;100.00;62617.13;4948290;29;20270;-78
2022/12/07 08:42:45;;;;;;;53.47;25.55;;;;;;;5.95;100.00;62609.91;4949407;29;20213;-77
2022/12/07 08:45:14;;;;;;;53.85;27.88;;;;;;;5.95;100.00;62609.91;4948169;29;20228;-76
2022/12/07 08:47:49;;;;;;;65.65;27.35;;;;;;;5.88;100.00;62600.69;4949123;29;20390;-77
2022/12/07 08:50:17;;;;;;;59.38;28.25;;;;;;;5.84;100.00;62599.06;4950420;29;20469;-79
2022/12/07 08:52:45;;;;;;;49.88;27.10;;;;;;;6.11;100.00;62629.44;4949075;29;20241;-78
2022/12/07 08:55:12;;;;;;;62.13;28.15;;;;;;;5.99;100.00;62617.06;4949022;28;20269;-77
2022/12/07 08:57:43;;;;;;;50.67;27.10;;;;;;;5.84;100.00;62599.06;4946507;29;20197;-78
2022/12/07 09:00:28;;;;;;;49.45;26.33;;;;;;;6.16;100.00;62632.06;4947130;29;20252;-79
2022/12/07 09:02:57;;;;;;;52.85;27.63;;;;;;;6.33;100.00;62649.06;4951087;29;20220;-78
2022/12/07 09:05:24;;;;;;;54.28;27.67;;;;;;;6.40;100.00;62659.31;4947565;29;20252;-77
2022/12/07 09:07:56;;;;;;;55.38;28.85;;;;;;;6.46;100.00;62663.00;4947920;29;20242;-78
2022/12/07 09:10:23;;;;;;;49.97;26.10;;;;;;;6.47;100.00;62664.00;4947967;29;20229;-77
2022/12/07 09:12:50;;;;;;;62.60;27.92;;;;;;;6.71;100.00;62688.25;4947838;29;20455;-77
2022/12/07 09:15:18;;;;;;;46.88;26.42;;;;;;;6.74;100.00;62691.88;4947526;29;20281;-79
2022/12/07 09:17:44;;;;;;;55.70;27.80;;;;;;;6.93;100.00;62716.53;4949174;29;20219;-78
2022/12/07 09:20:13;;;;;;;56.00;27.92;;;;;;;6.89;100.00;62709.34;4966997;28;20237;-77
2022/12/07 09:22:40;;;;;;;53.65;26.00;;;;;;;6.98;100.00;62716.09;4951797;28;20206;-78
2022/12/07 09:25:08;;;;;;;50.92;28.40;;;;;;;7.07;100.00;62725.38;4952146;29;20206;-79
2022/12/07 09:27:35;;;;;;;46.65;26.65;;;;;;;7.09;100.00;62724.94;4947899;29;20205;-79
2022/12/07 09:30:02;;;;;;;44.13;25.95;;;;;;;7.27;100.00;62748.03;4949733;29;20489;-77
2022/12/07 09:32:29;;;;;;;55.35;27.60;;;;;;;7.45;100.00;62766.63;4957437;28;20205;-77
2022/12/07 09:34:56;;;;;;;64.82;36.45;;;;;;;7.55;100.00;62774.41;4951483;29;20205;-79
2022/12/07 09:37:25;;;;;;;54.63;30.30;;;;;;;7.59;100.00;62779.03;4967682;28;20364;-79
2022/12/07 09:39:52;;;;;;;67.85;32.50;;;;;;;7.70;100.00;62787.34;4964982;28;20416;-79
2022/12/07 09:42:30;;;;;;;50.55;28.42;;;;;;;7.99;100.00;62824.88;4946927;29;20221;-79
2022/12/07 09:44:59;;;;;;;50.88;26.85;;;;;;;8.20;100.00;62841.50;4949834;29;20208;-79
2022/12/07 09:47:30;;;;;;;48.97;25.95;;;;;;;8.39;100.00;62860.66;4949540;29;20236;-78
2022/12/07 09:50:05;;;;;;;44.70;23.67;;;;;;;8.64;100.00;62886.47;4947714;28;20232;-77
2022/12/07 09:52:33;;;;;;;42.78;22.80;;;;;;;8.75;100.00;62905.47;4958765;29;20200;-78
2022/12/07 09:55:00;;;;;;;38.38;22.58;;;;;;;8.86;100.00;62907.19;4948593;29;20518;-79
2022/12/07 09:57:31;;;;;;;33.80;20.52;;;;;;;8.78;100.00;62898.91;4948659;29;20221;-78
2022/12/07 10:00:01;;;;;;;40.70;21.70;;;;;;;8.90;100.00;62910.78;4948988;29;20315;-79
2022/12/07 10:02:37;;;;;;;46.90;23.27;;;;;;;9.04;100.00;62928.31;4947945;29;20232;-77
2022/12/07 10:05:06;;;;;;;38.30;22.38;;;;;;;9.20;100.00;62951.94;4949450;29;20256;-79
2022/12/07 10:07:34;;;;;;;42.72;22.20;;;;;;;9.21;100.00;62950.47;4948568;29;20224;-78
2022/12/07 10:10:04;;;;;;;33.90;20.58;;;;;;;9.12;100.00;62939.13;4953516;29;20506;-78
2022/12/07 10:12:31;;;;;;;41.05;20.30;;;;;;;9.10;100.00;62934.00;4955095;28;20265;-77
2022/12/07 10:15:02;;;;;;;38.08;19.67;;;;;;;8.93;100.00;62918.97;4944993;29;20449;-78
2022/12/07 10:17:39;;;;;;;34.53;20.30;;;;;;;9.05;100.00;62936.44;4944007;28;20271;-77
2022/12/07 10:20:43;;;;;;;;;;;;;;;;;;;;;
2022/12/07 10:23:16;;;;;;;32.63;19.90;;;;;;;8.78;100.00;62900.94;4938709;29;20221;-77
2022/12/07 10:25:43;;;;;;;37.33;20.98;;;;;;;9.06;100.00;62927.34;4934044;29;20233;-78
2022/12/07 10:28:19;;;;;;;26.45;16.92;;;;;;;9.12;100.00;62936.06;4956728;29;20198;-79
2022/12/07 10:30:59;;;;;;;29.17;18.10;;;;;;;8.59;100.00;62884.38;4954161;28;20272;-79
2022/12/07 10:33:35;;;;;;;29.95;18.33;;;;;;;8.67;100.00;62887.03;4947890;29;20201;-78
2022/12/07 10:36:18;;;;;;;37.67;19.73;;;;;;;9.14;100.00;62940.69;4951042;28;20220;-79
2022/12/07 10:38:48;;;;;;;34.72;19.75;;;;;;;9.41;100.00;62962.97;4952432;29;20229;-79
2022/12/07 10:41:17;;;;;;;36.50;19.85;;;;;;;9.40;100.00;62967.03;4949965;28;20430;-78
2022/12/07 10:43:53;;;;;;;34.35;19.50;;;;;;;9.63;100.00;62990.84;4946335;29;20230;-78
2022/12/07 10:46:49;;;;;;;35.22;21.35;;;;;;;9.41;100.00;62965.53;4951962;29;20537;-79
2022/12/07 10:50:03;;;;;;;36.63;19.98;;;;;;;9.28;100.00;62955.66;4946703;29;20222;-78
2022/12/07 10:52:46;;;;;;;36.80;21.60;;;;;;;9.29;100.00;62956.19;4945187;29;20392;-79
2022/12/07 10:55:23;;;;;;;38.65;20.95;;;;;;;8.86;100.00;62906.66;4949416;29;20213;-77
2022/12/07 10:58:13;;;;;;;30.42;19.95;;;;;;;9.07;100.00;62935.97;4946701;29;20205;-79
2022/12/07 11:00:51;;;;;;;35.70;20.77;;;;;;;9.28;100.00;62953.13;4950592;29;20245;-79
2022/12/07 11:03:47;;;;;;;36.58;21.60;;;;;;;9.32;100.00;62956.75;4949131;29;20197;-77
2022/12/07 11:06:29;;;;;;;38.05;19.98;;;;;;;9.49;100.00;62974.31;4943523;29;20225;-78
2022/12/07 11:09:29;;;;;;;31.20;20.05;;;;;;;9.57;100.00;62984.63;4950157;29;20205;-76
2022/12/07 11:12:07;;;;;;;31.35;19.60;;;;;;;9.49;100.00;62973.81;4948979;28;20217;-79
2022/12/07 11:14:41;;;;;;;33.08;19.65;;;;;;;9.34;100.00;62956.28;4952025;29;20246;-78
2022/12/07 11:17:13;;;;;;;37.33;20.92;;;;;;;9.52;100.00;62979.44;4949848;29;20526;-78
2022/12/07 11:20:01;;;;;;;31.02;19.17;;;;;;;9.56;100.00;62981.03;4949066;29;20424;-78
2022/12/07 11:22:35;;;;;;;37.47;21.10;;;;;;;9.49;100.00;62976.84;4949051;29;20205;-78
2022/12/07 11:25:18;;;;;;;34.88;19.90;;;;;;;9.54;100.00;62979.50;4946718;29;20245;-77
2022/12/07 11:27:59;;;;;;;35.30;20.08;;;;;;;9.43;100.00;62970.66;4948278;29;20221;-77
2022/12/07 11:30:35;;;;;;;29.58;17.23;;;;;;;9.62;100.00;62987.25;4932089;29;20221;-78
2022/12/07 11:33:16;;;;;;;31.00;19.52;;;;;;;9.21;100.00;62945.38;4938684;29;20205;-78
2022/12/07 11:35:57;;;;;;;31.20;19.33;;;;;;;8.72;100.00;62897.25;4950195;29;20410;-79
2022/12/07 11:38:32;;;;;;;33.00;19.70;;;;;;;8.78;100.00;62906.00;4948919;28;20205;-78
2022/12/07 11:41:13;;;;;;;32.05;18.30;;;;;;;8.94;100.00;62917.97;4950649;29;20235;-79